sensor_id;sensor_type;location;lat;lon;timestamp;temperature;humidity
578;DHT22;275;48.492;9.214;2023-12-20T00:02:13;11.40;25.90
578;DHT22;275;48.492;9.214;2023-12-20T00:04:40;11.30;27.20
578;DHT22;275;48.492;9.214;2023-12-20T00:07:08;11.30;26.60
578;DHT22;275;48.492;9.214;2023-12-20T00:09:34;10.70;27.30
578;DHT22;275;48.492;9.214;2023-12-20T00:12:01;10.30;28.10
578;DHT22;275;48.492;9.214;2023-12-20T00:14:28;10.40;29.60
578;DHT22;275;48.492;9.214;2023-12-20T00:16:55;10.60;29.10
578;DHT22;275;48.492;9.214;2023-12-20T00:19:22;10.90;28.30
578;DHT22;275;48.492;9.214;2023-12-20T00:21:49;11.10;28.10
578;DHT22;275;48.492;9.214;2023-12-20T00:24:17;11.00;27.90
578;DHT22;275;48.492;9.214;2023-12-20T00:26:44;11.30;27.80
578;DHT22;275;48.492;9.214;2023-12-20T00:29:11;11.20;28.20
578;DHT22;275;48.492;9.214;2023-12-20T00:31:38;11.20;28.30
578;DHT22;275;48.492;9.214;2023-12-20T00:34:04;11.10;28.30
578;DHT22;275;48.492;9.214;2023-12-20T00:36:31;11.10;28.80
578;DHT22;275;48.492;9.214;2023-12-20T00:38:58;11.10;28.60
578;DHT22;275;48.492;9.214;2023-12-20T00:41:26;11.20;28.00
578;DHT22;275;48.492;9.214;2023-12-20T00:43:53;11.40;27.60
578;DHT22;275;48.492;9.214;2023-12-20T00:46:20;11.60;26.70
578;DHT22;275;48.492;9.214;2023-12-20T00:48:46;11.60;26.80
578;DHT22;275;48.492;9.214;2023-12-20T00:51:13;11.60;26.60
578;DHT22;275;48.492;9.214;2023-12-20T00:53:40;11.70;26.20
578;DHT22;275;48.492;9.214;2023-12-20T00:56:07;11.40;26.90
578;DHT22;275;48.492;9.214;2023-12-20T00:58:35;11.10;27.50
578;DHT22;275;48.492;9.214;2023-12-20T01:01:02;11.30;27.50
578;DHT22;275;48.492;9.214;2023-12-20T01:03:29;11.60;26.80
578;DHT22;275;48.492;9.214;2023-12-20T01:05:56;11.50;26.80
578;DHT22;275;48.492;9.214;2023-12-20T01:08:22;11.50;27.00
578;DHT22;275;48.492;9.214;2023-12-20T01:10:49;11.40;27.20
578;DHT22;275;48.492;9.214;2023-12-20T01:13:16;11.40;27.10
578;DHT22;275;48.492;9.214;2023-12-20T01:15:44;11.50;27.10
578;DHT22;275;48.492;9.214;2023-12-20T01:18:13;11.60;27.20
578;DHT22;275;48.492;9.214;2023-12-20T01:20:39;11.60;26.90
578;DHT22;275;48.492;9.214;2023-12-20T01:23:06;11.60;26.90
578;DHT22;275;48.492;9.214;2023-12-20T01:25:33;11.60;26.70
578;DHT22;275;48.492;9.214;2023-12-20T01:28:00;11.30;27.30
578;DHT22;275;48.492;9.214;2023-12-20T01:30:28;11.10;27.90
578;DHT22;275;48.492;9.214;2023-12-20T01:32:56;10.80;28.40
578;DHT22;275;48.492;9.214;2023-12-20T01:35:23;10.90;28.40
578;DHT22;275;48.492;9.214;2023-12-20T01:37:50;10.70;29.00
578;DHT22;275;48.492;9.214;2023-12-20T01:40:17;10.30;29.80
578;DHT22;275;48.492;9.214;2023-12-20T01:42:43;10.30;30.30
578;DHT22;275;48.492;9.214;2023-12-20T01:45:10;10.70;30.00
578;DHT22;275;48.492;9.214;2023-12-20T01:47:37;10.90;29.40
578;DHT22;275;48.492;9.214;2023-12-20T01:50:07;11.10;29.20
578;DHT22;275;48.492;9.214;2023-12-20T01:52:34;11.10;29.30
578;DHT22;275;48.492;9.214;2023-12-20T01:55:01;11.00;29.80
578;DHT22;275;48.492;9.214;2023-12-20T01:57:32;11.10;30.00
578;DHT22;275;48.492;9.214;2023-12-20T01:59:59;10.90;29.90
578;DHT22;275;48.492;9.214;2023-12-20T02:02:27;10.20;32.10
578;DHT22;275;48.492;9.214;2023-12-20T02:04:55;9.60;35.50
578;DHT22;275;48.492;9.214;2023-12-20T02:07:23;9.20;38.10
578;DHT22;275;48.492;9.214;2023-12-20T02:09:50;9.30;37.60
578;DHT22;275;48.492;9.214;2023-12-20T02:12:17;8.90;39.90
578;DHT22;275;48.492;9.214;2023-12-20T02:14:44;9.00;39.70
578;DHT22;275;48.492;9.214;2023-12-20T02:17:11;9.10;39.50
578;DHT22;275;48.492;9.214;2023-12-20T02:19:37;9.10;39.70
578;DHT22;275;48.492;9.214;2023-12-20T02:22:07;9.00;40.30
578;DHT22;275;48.492;9.214;2023-12-20T02:24:34;8.60;42.10
578;DHT22;275;48.492;9.214;2023-12-20T02:27:01;8.70;41.30
578;DHT22;275;48.492;9.214;2023-12-20T02:29:28;8.10;43.90
578;DHT22;275;48.492;9.214;2023-12-20T02:31:55;8.30;44.10
578;DHT22;275;48.492;9.214;2023-12-20T02:34:22;8.70;42.90
578;DHT22;275;48.492;9.214;2023-12-20T02:36:48;8.90;42.60
578;DHT22;275;48.492;9.214;2023-12-20T02:39:17;8.50;44.00
578;DHT22;275;48.492;9.214;2023-12-20T02:41:44;8.70;43.50
578;DHT22;275;48.492;9.214;2023-12-20T02:44:11;8.50;44.50
578;DHT22;275;48.492;9.214;2023-12-20T02:46:38;8.40;44.30
578;DHT22;275;48.492;9.214;2023-12-20T02:49:05;8.20;45.80
578;DHT22;275;48.492;9.214;2023-12-20T02:51:32;8.40;45.20
578;DHT22;275;48.492;9.214;2023-12-20T02:53:59;8.80;43.90
578;DHT22;275;48.492;9.214;2023-12-20T02:56:27;8.90;42.50
578;DHT22;275;48.492;9.214;2023-12-20T02:58:54;9.10;42.00
578;DHT22;275;48.492;9.214;2023-12-20T03:01:21;9.40;41.20
578;DHT22;275;48.492;9.214;2023-12-20T03:03:47;9.50;40.30
578;DHT22;275;48.492;9.214;2023-12-20T03:06:16;9.30;40.90
578;DHT22;275;48.492;9.214;2023-12-20T03:08:43;9.50;40.30
578;DHT22;275;48.492;9.214;2023-12-20T03:11:10;9.30;41.40
578;DHT22;275;48.492;9.214;2023-12-20T03:13:38;9.80;39.40
578;DHT22;275;48.492;9.214;2023-12-20T03:16:08;9.90;38.00
578;DHT22;275;48.492;9.214;2023-12-20T03:18:35;9.20;40.50
578;DHT22;275;48.492;9.214;2023-12-20T03:21:02;9.00;41.00
578;DHT22;275;48.492;9.214;2023-12-20T03:23:29;8.70;43.40
578;DHT22;275;48.492;9.214;2023-12-20T03:25:56;8.90;42.10
578;DHT22;275;48.492;9.214;2023-12-20T03:28:22;8.90;42.90
578;DHT22;275;48.492;9.214;2023-12-20T03:30:51;9.00;42.20
578;DHT22;275;48.492;9.214;2023-12-20T03:33:17;8.70;43.10
578;DHT22;275;48.492;9.214;2023-12-20T03:35:44;8.40;45.50
578;DHT22;275;48.492;9.214;2023-12-20T03:38:11;8.70;43.80
578;DHT22;275;48.492;9.214;2023-12-20T03:40:38;8.40;45.50
578;DHT22;275;48.492;9.214;2023-12-20T03:43:05;8.30;45.80
578;DHT22;275;48.492;9.214;2023-12-20T03:45:31;8.20;46.40
578;DHT22;275;48.492;9.214;2023-12-20T03:48:00;8.20;46.60
578;DHT22;275;48.492;9.214;2023-12-20T03:50:27;8.00;48.00
578;DHT22;275;48.492;9.214;2023-12-20T03:52:53;8.30;46.90
578;DHT22;275;48.492;9.214;2023-12-20T03:55:20;8.10;47.80
578;DHT22;275;48.492;9.214;2023-12-20T03:57:47;8.30;47.30
578;DHT22;275;48.492;9.214;2023-12-20T04:00:14;8.40;46.60
578;DHT22;275;48.492;9.214;2023-12-20T04:02:42;8.60;45.90
578;DHT22;275;48.492;9.214;2023-12-20T04:05:10;8.40;47.20
578;DHT22;275;48.492;9.214;2023-12-20T04:07:37;8.50;46.80
578;DHT22;275;48.492;9.214;2023-12-20T04:10:05;8.60;45.80
578;DHT22;275;48.492;9.214;2023-12-20T04:12:32;8.80;45.30
578;DHT22;275;48.492;9.214;2023-12-20T04:14:59;8.60;45.50
578;DHT22;275;48.492;9.214;2023-12-20T04:17:26;8.50;45.90
578;DHT22;275;48.492;9.214;2023-12-20T04:19:53;8.60;46.10
578;DHT22;275;48.492;9.214;2023-12-20T04:22:21;8.30;45.00
578;DHT22;275;48.492;9.214;2023-12-20T04:24:48;7.80;49.30
578;DHT22;275;48.492;9.214;2023-12-20T04:27:15;7.90;48.90
578;DHT22;275;48.492;9.214;2023-12-20T04:29:42;7.90;48.30
578;DHT22;275;48.492;9.214;2023-12-20T04:32:09;8.20;48.20
578;DHT22;275;48.492;9.214;2023-12-20T04:34:36;8.50;46.10
578;DHT22;275;48.492;9.214;2023-12-20T04:37:03;8.30;47.30
578;DHT22;275;48.492;9.214;2023-12-20T04:39:31;8.50;46.70
578;DHT22;275;48.492;9.214;2023-12-20T04:41:58;8.90;45.30
578;DHT22;275;48.492;9.214;2023-12-20T04:44:25;8.70;44.70
578;DHT22;275;48.492;9.214;2023-12-20T04:46:52;8.30;46.50
578;DHT22;275;48.492;9.214;2023-12-20T04:49:19;8.10;47.60
578;DHT22;275;48.492;9.214;2023-12-20T04:51:46;8.20;47.80
578;DHT22;275;48.492;9.214;2023-12-20T04:54:12;8.50;46.10
578;DHT22;275;48.492;9.214;2023-12-20T04:56:41;8.60;45.60
578;DHT22;275;48.492;9.214;2023-12-20T04:59:08;8.40;45.80
578;DHT22;275;48.492;9.214;2023-12-20T05:01:35;8.60;45.20
578;DHT22;275;48.492;9.214;2023-12-20T05:04:01;8.50;45.50
578;DHT22;275;48.492;9.214;2023-12-20T05:06:28;8.80;43.90
578;DHT22;275;48.492;9.214;2023-12-20T05:08:55;8.50;43.90
578;DHT22;275;48.492;9.214;2023-12-20T05:11:22;8.10;46.90
578;DHT22;275;48.492;9.214;2023-12-20T05:13:50;8.60;44.00
578;DHT22;275;48.492;9.214;2023-12-20T05:16:17;9.00;43.00
578;DHT22;275;48.492;9.214;2023-12-20T05:18:44;9.30;40.70
578;DHT22;275;48.492;9.214;2023-12-20T05:21:11;8.60;43.00
578;DHT22;275;48.492;9.214;2023-12-20T05:23:38;8.40;44.10
578;DHT22;275;48.492;9.214;2023-12-20T05:26:05;8.70;43.40
578;DHT22;275;48.492;9.214;2023-12-20T05:28:32;9.00;42.10
578;DHT22;275;48.492;9.214;2023-12-20T05:31:00;9.20;40.20
578;DHT22;275;48.492;9.214;2023-12-20T05:33:27;9.10;41.00
578;DHT22;275;48.492;9.214;2023-12-20T05:35:54;8.80;42.50
578;DHT22;275;48.492;9.214;2023-12-20T05:38:21;8.70;41.90
578;DHT22;275;48.492;9.214;2023-12-20T05:40:48;8.60;42.70
578;DHT22;275;48.492;9.214;2023-12-20T05:43:15;8.50;42.90
578;DHT22;275;48.492;9.214;2023-12-20T05:45:41;8.60;42.80
578;DHT22;275;48.492;9.214;2023-12-20T05:48:10;8.50;42.70
578;DHT22;275;48.492;9.214;2023-12-20T05:50:36;8.30;44.50
578;DHT22;275;48.492;9.214;2023-12-20T05:53:04;8.20;44.20
578;DHT22;275;48.492;9.214;2023-12-20T05:55:31;8.10;44.50
578;DHT22;275;48.492;9.214;2023-12-20T05:57:58;7.80;45.10
578;DHT22;275;48.492;9.214;2023-12-20T06:00:25;7.80;46.10
578;DHT22;275;48.492;9.214;2023-12-20T06:02:52;8.10;45.20
578;DHT22;275;48.492;9.214;2023-12-20T06:05:20;8.20;44.60
578;DHT22;275;48.492;9.214;2023-12-20T06:07:47;8.30;44.60
578;DHT22;275;48.492;9.214;2023-12-20T06:10:16;8.40;43.60
578;DHT22;275;48.492;9.214;2023-12-20T06:12:43;8.80;42.20
578;DHT22;275;48.492;9.214;2023-12-20T06:15:10;9.10;40.80
578;DHT22;275;48.492;9.214;2023-12-20T06:17:37;8.90;42.20
578;DHT22;275;48.492;9.214;2023-12-20T06:20:04;8.60;43.20
578;DHT22;275;48.492;9.214;2023-12-20T06:22:34;9.10;40.90
578;DHT22;275;48.492;9.214;2023-12-20T06:25:01;8.80;41.60
578;DHT22;275;48.492;9.214;2023-12-20T06:27:28;8.50;43.50
578;DHT22;275;48.492;9.214;2023-12-20T06:29:55;8.40;43.60
578;DHT22;275;48.492;9.214;2023-12-20T06:32:22;7.90;46.70
578;DHT22;275;48.492;9.214;2023-12-20T06:34:50;8.40;45.70
578;DHT22;275;48.492;9.214;2023-12-20T06:37:16;8.40;43.90
578;DHT22;275;48.492;9.214;2023-12-20T06:39:44;8.50;44.60
578;DHT22;275;48.492;9.214;2023-12-20T06:42:12;9.10;41.80
578;DHT22;275;48.492;9.214;2023-12-20T06:44:38;9.40;41.00
578;DHT22;275;48.492;9.214;2023-12-20T06:47:05;9.50;39.30
578;DHT22;275;48.492;9.214;2023-12-20T06:49:32;9.20;40.80
578;DHT22;275;48.492;9.214;2023-12-20T06:51:59;8.90;42.10
578;DHT22;275;48.492;9.214;2023-12-20T06:54:26;9.20;41.30
578;DHT22;275;48.492;9.214;2023-12-20T06:56:54;8.80;41.70
578;DHT22;275;48.492;9.214;2023-12-20T06:59:20;8.80;42.00
578;DHT22;275;48.492;9.214;2023-12-20T07:01:48;8.30;43.20
578;DHT22;275;48.492;9.214;2023-12-20T07:04:15;8.10;44.40
578;DHT22;275;48.492;9.214;2023-12-20T07:06:45;8.30;44.30
578;DHT22;275;48.492;9.214;2023-12-20T07:09:13;8.30;43.80
578;DHT22;275;48.492;9.214;2023-12-20T07:11:40;8.20;45.50
578;DHT22;275;48.492;9.214;2023-12-20T07:14:09;8.50;43.20
578;DHT22;275;48.492;9.214;2023-12-20T07:16:35;9.10;41.40
578;DHT22;275;48.492;9.214;2023-12-20T07:19:02;9.60;39.70
578;DHT22;275;48.492;9.214;2023-12-20T07:21:29;9.70;38.20
578;DHT22;275;48.492;9.214;2023-12-20T07:23:56;9.30;39.90
578;DHT22;275;48.492;9.214;2023-12-20T07:26:22;8.90;41.40
578;DHT22;275;48.492;9.214;2023-12-20T07:28:49;9.00;41.00
578;DHT22;275;48.492;9.214;2023-12-20T07:31:18;8.60;42.30
578;DHT22;275;48.492;9.214;2023-12-20T07:33:45;8.50;42.40
578;DHT22;275;48.492;9.214;2023-12-20T07:36:12;8.40;43.40
578;DHT22;275;48.492;9.214;2023-12-20T07:38:39;8.30;44.90
578;DHT22;275;48.492;9.214;2023-12-20T07:41:09;8.50;43.80
578;DHT22;275;48.492;9.214;2023-12-20T07:43:36;8.90;42.40
578;DHT22;275;48.492;9.214;2023-12-20T07:46:06;8.80;42.00
578;DHT22;275;48.492;9.214;2023-12-20T07:48:35;8.90;41.30
578;DHT22;275;48.492;9.214;2023-12-20T07:51:02;8.50;43.50
578;DHT22;275;48.492;9.214;2023-12-20T07:53:29;8.30;44.00
578;DHT22;275;48.492;9.214;2023-12-20T07:55:56;8.20;45.00
578;DHT22;275;48.492;9.214;2023-12-20T07:58:23;8.10;44.80
578;DHT22;275;48.492;9.214;2023-12-20T08:00:50;8.00;45.90
578;DHT22;275;48.492;9.214;2023-12-20T08:03:16;8.20;45.40
578;DHT22;275;48.492;9.214;2023-12-20T08:05:44;8.40;44.70
578;DHT22;275;48.492;9.214;2023-12-20T08:08:11;8.20;45.00
578;DHT22;275;48.492;9.214;2023-12-20T08:10:38;8.00;46.20
578;DHT22;275;48.492;9.214;2023-12-20T08:13:05;8.20;45.40
578;DHT22;275;48.492;9.214;2023-12-20T08:15:32;8.00;46.60
578;DHT22;275;48.492;9.214;2023-12-20T08:17:59;7.70;47.60
578;DHT22;275;48.492;9.214;2023-12-20T08:20:25;7.90;47.40
578;DHT22;275;48.492;9.214;2023-12-20T08:22:54;8.10;46.80
578;DHT22;275;48.492;9.214;2023-12-20T08:25:20;8.10;46.00
578;DHT22;275;48.492;9.214;2023-12-20T08:27:47;7.90;46.20
578;DHT22;275;48.492;9.214;2023-12-20T08:30:14;7.90;47.00
578;DHT22;275;48.492;9.214;2023-12-20T08:32:42;8.50;45.00
578;DHT22;275;48.492;9.214;2023-12-20T08:35:09;8.10;45.60
578;DHT22;275;48.492;9.214;2023-12-20T08:37:36;8.30;46.20
578;DHT22;275;48.492;9.214;2023-12-20T08:40:05;8.50;44.50
578;DHT22;275;48.492;9.214;2023-12-20T08:42:32;8.20;44.70
578;DHT22;275;48.492;9.214;2023-12-20T08:44:59;8.20;45.40
578;DHT22;275;48.492;9.214;2023-12-20T08:47:26;8.40;45.00
578;DHT22;275;48.492;9.214;2023-12-20T08:49:53;9.10;42.70
578;DHT22;275;48.492;9.214;2023-12-20T08:52:22;9.10;42.70
578;DHT22;275;48.492;9.214;2023-12-20T08:54:49;9.60;40.90
578;DHT22;275;48.492;9.214;2023-12-20T08:57:19;10.00;38.80
578;DHT22;275;48.492;9.214;2023-12-20T08:59:46;9.60;40.30
578;DHT22;275;48.492;9.214;2023-12-20T09:02:13;9.70;40.00
578;DHT22;275;48.492;9.214;2023-12-20T09:04:40;9.30;40.80
578;DHT22;275;48.492;9.214;2023-12-20T09:07:18;9.10;42.00
578;DHT22;275;48.492;9.214;2023-12-20T09:09:47;8.70;42.30
578;DHT22;275;48.492;9.214;2023-12-20T09:12:13;8.50;44.90
578;DHT22;275;48.492;9.214;2023-12-20T09:14:41;9.10;42.70
578;DHT22;275;48.492;9.214;2023-12-20T09:17:08;8.80;43.80
578;DHT22;275;48.492;9.214;2023-12-20T09:19:37;8.70;44.70
578;DHT22;275;48.492;9.214;2023-12-20T09:22:04;8.90;44.50
578;DHT22;275;48.492;9.214;2023-12-20T09:24:31;8.80;44.50
578;DHT22;275;48.492;9.214;2023-12-20T09:26:58;8.90;44.60
578;DHT22;275;48.492;9.214;2023-12-20T09:29:25;8.30;44.60
578;DHT22;275;48.492;9.214;2023-12-20T09:31:53;8.10;44.50
578;DHT22;275;48.492;9.214;2023-12-20T09:34:20;8.20;44.60
578;DHT22;275;48.492;9.214;2023-12-20T09:36:47;8.30;45.00
578;DHT22;275;48.492;9.214;2023-12-20T09:39:14;8.60;43.30
578;DHT22;275;48.492;9.214;2023-12-20T09:41:45;8.60;41.00
578;DHT22;275;48.492;9.214;2023-12-20T09:44:16;8.30;40.10
578;DHT22;275;48.492;9.214;2023-12-20T09:46:45;8.30;40.10
578;DHT22;275;48.492;9.214;2023-12-20T09:49:14;8.40;38.90
578;DHT22;275;48.492;9.214;2023-12-20T09:51:41;8.60;38.60
578;DHT22;275;48.492;9.214;2023-12-20T09:54:08;8.80;37.70
578;DHT22;275;48.492;9.214;2023-12-20T09:56:37;8.90;37.10
578;DHT22;275;48.492;9.214;2023-12-20T09:59:04;8.80;36.10
578;DHT22;275;48.492;9.214;2023-12-20T10:01:31;8.90;36.00
578;DHT22;275;48.492;9.214;2023-12-20T10:04:00;8.80;35.00
578;DHT22;275;48.492;9.214;2023-12-20T10:06:28;9.00;34.00
578;DHT22;275;48.492;9.214;2023-12-20T10:08:55;9.20;34.50
578;DHT22;275;48.492;9.214;2023-12-20T10:11:22;9.30;34.10
578;DHT22;275;48.492;9.214;2023-12-20T10:13:49;9.50;33.40
578;DHT22;275;48.492;9.214;2023-12-20T10:16:16;9.70;32.00
578;DHT22;275;48.492;9.214;2023-12-20T10:18:42;9.50;32.20
578;DHT22;275;48.492;9.214;2023-12-20T10:21:09;9.40;32.00
578;DHT22;275;48.492;9.214;2023-12-20T10:23:38;9.40;32.80
578;DHT22;275;48.492;9.214;2023-12-20T10:26:06;9.30;33.00
578;DHT22;275;48.492;9.214;2023-12-20T10:28:34;9.00;33.60
578;DHT22;275;48.492;9.214;2023-12-20T10:31:00;8.20;35.40
578;DHT22;275;48.492;9.214;2023-12-20T10:33:28;7.80;37.90
578;DHT22;275;48.492;9.214;2023-12-20T10:35:56;8.30;36.40
578;DHT22;275;48.492;9.214;2023-12-20T10:38:22;8.60;35.60
578;DHT22;275;48.492;9.214;2023-12-20T10:40:55;9.10;33.90
578;DHT22;275;48.492;9.214;2023-12-20T10:43:24;8.90;33.70
578;DHT22;275;48.492;9.214;2023-12-20T10:45:52;8.70;32.90
578;DHT22;275;48.492;9.214;2023-12-20T10:48:20;8.00;34.40
578;DHT22;275;48.492;9.214;2023-12-20T10:50:55;7.90;34.40
578;DHT22;275;48.492;9.214;2023-12-20T10:53:23;7.80;34.10
578;DHT22;275;48.492;9.214;2023-12-20T10:55:52;8.10;33.40
578;DHT22;275;48.492;9.214;2023-12-20T10:58:22;8.10;32.90
578;DHT22;275;48.492;9.214;2023-12-20T11:00:54;8.00;33.80
578;DHT22;275;48.492;9.214;2023-12-20T11:03:23;8.30;33.10
578;DHT22;275;48.492;9.214;2023-12-20T11:06:00;8.80;31.60
578;DHT22;275;48.492;9.214;2023-12-20T11:08:33;8.50;31.90
578;DHT22;275;48.492;9.214;2023-12-20T11:11:09;8.70;31.20
578;DHT22;275;48.492;9.214;2023-12-20T11:13:43;8.40;31.30
578;DHT22;275;48.492;9.214;2023-12-20T11:16:14;8.10;32.50
578;DHT22;275;48.492;9.214;2023-12-20T11:18:41;7.80;32.90
578;DHT22;275;48.492;9.214;2023-12-20T11:21:08;7.70;31.90
578;DHT22;275;48.492;9.214;2023-12-20T11:23:35;8.20;30.90
578;DHT22;275;48.492;9.214;2023-12-20T11:26:04;8.60;29.90
578;DHT22;275;48.492;9.214;2023-12-20T11:28:30;8.50;30.40
578;DHT22;275;48.492;9.214;2023-12-20T11:30:58;8.00;31.40
578;DHT22;275;48.492;9.214;2023-12-20T11:33:29;7.60;32.40
578;DHT22;275;48.492;9.214;2023-12-20T11:35:57;7.90;31.80
578;DHT22;275;48.492;9.214;2023-12-20T11:38:25;7.60;31.30
578;DHT22;275;48.492;9.214;2023-12-20T11:40:54;7.90;31.50
578;DHT22;275;48.492;9.214;2023-12-20T11:43:31;8.20;30.20
578;DHT22;275;48.492;9.214;2023-12-20T11:46:03;8.30;30.00
578;DHT22;275;48.492;9.214;2023-12-20T11:48:31;8.40;29.60
578;DHT22;275;48.492;9.214;2023-12-20T11:50:58;8.60;29.20
578;DHT22;275;48.492;9.214;2023-12-20T11:53:25;9.10;28.00
578;DHT22;275;48.492;9.214;2023-12-20T11:55:53;9.20;27.40
578;DHT22;275;48.492;9.214;2023-12-20T11:58:20;8.90;28.30
578;DHT22;275;48.492;9.214;2023-12-20T12:00:49;8.70;28.40
578;DHT22;275;48.492;9.214;2023-12-20T12:03:16;8.40;29.90
578;DHT22;275;48.492;9.214;2023-12-20T12:05:43;9.00;28.70
578;DHT22;275;48.492;9.214;2023-12-20T12:08:12;9.20;27.70
578;DHT22;275;48.492;9.214;2023-12-20T12:10:39;9.30;27.50
578;DHT22;275;48.492;9.214;2023-12-20T12:13:06;9.60;26.90
578;DHT22;275;48.492;9.214;2023-12-20T12:15:33;9.40;27.20
578;DHT22;275;48.492;9.214;2023-12-20T12:18:02;8.90;27.60
578;DHT22;275;48.492;9.214;2023-12-20T12:20:28;8.70;27.20
578;DHT22;275;48.492;9.214;2023-12-20T12:22:59;8.90;27.20
578;DHT22;275;48.492;9.214;2023-12-20T12:25:26;9.00;26.70
578;DHT22;275;48.492;9.214;2023-12-20T12:27:53;8.90;26.90
578;DHT22;275;48.492;9.214;2023-12-20T12:30:20;9.00;26.80
578;DHT22;275;48.492;9.214;2023-12-20T12:32:47;8.50;26.80
578;DHT22;275;48.492;9.214;2023-12-20T12:35:15;8.50;27.10
578;DHT22;275;48.492;9.214;2023-12-20T12:37:43;8.30;26.90
578;DHT22;275;48.492;9.214;2023-12-20T12:40:11;7.70;27.10
578;DHT22;275;48.492;9.214;2023-12-20T12:42:39;7.50;28.00
578;DHT22;275;48.492;9.214;2023-12-20T12:45:07;8.00;26.70
578;DHT22;275;48.492;9.214;2023-12-20T12:47:34;7.90;26.80
578;DHT22;275;48.492;9.214;2023-12-20T12:50:02;8.00;27.40
578;DHT22;275;48.492;9.214;2023-12-20T12:52:30;8.10;27.40
578;DHT22;275;48.492;9.214;2023-12-20T12:54:57;8.10;26.90
578;DHT22;275;48.492;9.214;2023-12-20T12:57:24;8.00;27.50
578;DHT22;275;48.492;9.214;2023-12-20T12:59:52;7.70;28.30
578;DHT22;275;48.492;9.214;2023-12-20T13:02:19;7.80;27.50
578;DHT22;275;48.492;9.214;2023-12-20T13:04:45;7.90;27.20
578;DHT22;275;48.492;9.214;2023-12-20T13:07:12;7.40;27.70
578;DHT22;275;48.492;9.214;2023-12-20T13:09:41;7.50;27.50
578;DHT22;275;48.492;9.214;2023-12-20T13:12:08;7.60;27.80
578;DHT22;275;48.492;9.214;2023-12-20T13:14:35;8.00;27.10
578;DHT22;275;48.492;9.214;2023-12-20T13:17:03;8.20;26.40
578;DHT22;275;48.492;9.214;2023-12-20T13:19:31;8.70;25.40
578;DHT22;275;48.492;9.214;2023-12-20T13:21:58;8.70;25.30
578;DHT22;275;48.492;9.214;2023-12-20T13:24:25;8.40;24.80
578;DHT22;275;48.492;9.214;2023-12-20T13:26:53;8.20;25.40
578;DHT22;275;48.492;9.214;2023-12-20T13:29:20;8.20;26.10
578;DHT22;275;48.492;9.214;2023-12-20T13:31:47;8.30;25.30
578;DHT22;275;48.492;9.214;2023-12-20T13:34:14;8.10;25.90
578;DHT22;275;48.492;9.214;2023-12-20T13:36:43;8.60;25.40
578;DHT22;275;48.492;9.214;2023-12-20T13:39:13;8.80;25.50
578;DHT22;275;48.492;9.214;2023-12-20T13:41:40;9.80;24.40
578;DHT22;275;48.492;9.214;2023-12-20T13:44:08;10.90;22.10
578;DHT22;275;48.492;9.214;2023-12-20T13:46:36;11.00;21.40
578;DHT22;275;48.492;9.214;2023-12-20T13:49:02;11.00;21.10
578;DHT22;275;48.492;9.214;2023-12-20T13:51:30;10.60;22.10
578;DHT22;275;48.492;9.214;2023-12-20T13:53:57;12.00;21.10
578;DHT22;275;48.492;9.214;2023-12-20T13:56:25;12.60;19.70
578;DHT22;275;48.492;9.214;2023-12-20T13:58:52;12.30;20.00
578;DHT22;275;48.492;9.214;2023-12-20T14:01:20;11.30;21.00
578;DHT22;275;48.492;9.214;2023-12-20T14:03:47;10.60;22.30
578;DHT22;275;48.492;9.214;2023-12-20T14:06:14;10.10;23.40
578;DHT22;275;48.492;9.214;2023-12-20T14:08:41;10.10;23.50
578;DHT22;275;48.492;9.214;2023-12-20T14:11:09;9.50;25.60
578;DHT22;275;48.492;9.214;2023-12-20T14:13:36;9.00;26.60
578;DHT22;275;48.492;9.214;2023-12-20T14:16:03;8.10;28.00
578;DHT22;275;48.492;9.214;2023-12-20T14:18:31;7.70;29.00
578;DHT22;275;48.492;9.214;2023-12-20T14:20:58;7.60;29.30
578;DHT22;275;48.492;9.214;2023-12-20T14:23:25;7.50;30.00
578;DHT22;275;48.492;9.214;2023-12-20T14:25:52;7.90;29.30
578;DHT22;275;48.492;9.214;2023-12-20T14:28:21;7.80;29.40
578;DHT22;275;48.492;9.214;2023-12-20T14:30:48;8.10;28.90
578;DHT22;275;48.492;9.214;2023-12-20T14:33:15;8.30;28.50
578;DHT22;275;48.492;9.214;2023-12-20T14:35:43;7.80;29.00
578;DHT22;275;48.492;9.214;2023-12-20T14:38:10;7.30;29.90
578;DHT22;275;48.492;9.214;2023-12-20T14:40:38;7.20;30.90
578;DHT22;275;48.492;9.214;2023-12-20T14:43:06;7.30;31.30
578;DHT22;275;48.492;9.214;2023-12-20T14:45:33;7.40;31.00
578;DHT22;275;48.492;9.214;2023-12-20T14:47:59;7.20;32.00
578;DHT22;275;48.492;9.214;2023-12-20T14:50:26;7.10;32.20
578;DHT22;275;48.492;9.214;2023-12-20T14:52:54;7.20;31.20
578;DHT22;275;48.492;9.214;2023-12-20T14:55:22;7.00;32.30
578;DHT22;275;48.492;9.214;2023-12-20T14:57:48;7.40;31.20
578;DHT22;275;48.492;9.214;2023-12-20T15:00:16;7.80;30.00
578;DHT22;275;48.492;9.214;2023-12-20T15:02:43;7.20;31.30
578;DHT22;275;48.492;9.214;2023-12-20T15:05:10;7.20;31.20
578;DHT22;275;48.492;9.214;2023-12-20T15:07:37;7.40;31.00
578;DHT22;275;48.492;9.214;2023-12-20T15:10:06;7.50;31.10
578;DHT22;275;48.492;9.214;2023-12-20T15:12:33;7.40;31.40
578;DHT22;275;48.492;9.214;2023-12-20T15:15:02;7.20;32.00
578;DHT22;275;48.492;9.214;2023-12-20T15:17:30;7.20;32.40
578;DHT22;275;48.492;9.214;2023-12-20T15:19:57;6.80;33.30
578;DHT22;275;48.492;9.214;2023-12-20T15:22:23;7.00;33.50
578;DHT22;275;48.492;9.214;2023-12-20T15:24:52;6.80;33.60
578;DHT22;275;48.492;9.214;2023-12-20T15:27:21;7.20;33.20
578;DHT22;275;48.492;9.214;2023-12-20T15:29:48;7.20;33.60
578;DHT22;275;48.492;9.214;2023-12-20T15:32:17;7.40;32.30
578;DHT22;275;48.492;9.214;2023-12-20T15:34:44;7.30;32.30
578;DHT22;275;48.492;9.214;2023-12-20T15:37:11;7.00;33.20
578;DHT22;275;48.492;9.214;2023-12-20T15:39:38;7.20;33.30
578;DHT22;275;48.492;9.214;2023-12-20T15:42:05;7.50;32.10
578;DHT22;275;48.492;9.214;2023-12-20T15:44:33;7.70;31.90
578;DHT22;275;48.492;9.214;2023-12-20T15:47:00;7.20;32.50
578;DHT22;275;48.492;9.214;2023-12-20T15:49:27;7.00;33.60
578;DHT22;275;48.492;9.214;2023-12-20T15:51:53;6.60;34.70
578;DHT22;275;48.492;9.214;2023-12-20T15:54:20;6.70;34.60
578;DHT22;275;48.492;9.214;2023-12-20T15:56:47;7.30;33.10
578;DHT22;275;48.492;9.214;2023-12-20T15:59:14;7.50;32.00
578;DHT22;275;48.492;9.214;2023-12-20T16:01:42;7.20;33.10
578;DHT22;275;48.492;9.214;2023-12-20T16:04:09;6.90;33.90
578;DHT22;275;48.492;9.214;2023-12-20T16:06:35;6.70;34.60
578;DHT22;275;48.492;9.214;2023-12-20T16:09:02;6.80;33.80
578;DHT22;275;48.492;9.214;2023-12-20T16:11:29;6.90;34.00
578;DHT22;275;48.492;9.214;2023-12-20T16:13:56;6.90;33.70
578;DHT22;275;48.492;9.214;2023-12-20T16:16:23;6.60;34.10
578;DHT22;275;48.492;9.214;2023-12-20T16:18:51;6.30;35.40
578;DHT22;275;48.492;9.214;2023-12-20T16:21:18;6.60;34.60
578;DHT22;275;48.492;9.214;2023-12-20T16:23:45;6.70;34.60
578;DHT22;275;48.492;9.214;2023-12-20T16:26:12;6.50;35.00
578;DHT22;275;48.492;9.214;2023-12-20T16:28:39;6.50;35.00
578;DHT22;275;48.492;9.214;2023-12-20T16:31:06;6.90;33.60
578;DHT22;275;48.492;9.214;2023-12-20T16:33:33;6.60;34.00
578;DHT22;275;48.492;9.214;2023-12-20T16:36:01;6.30;35.50
578;DHT22;275;48.492;9.214;2023-12-20T16:38:28;6.30;35.60
578;DHT22;275;48.492;9.214;2023-12-20T16:40:55;6.20;35.70
578;DHT22;275;48.492;9.214;2023-12-20T16:43:22;6.00;36.40
578;DHT22;275;48.492;9.214;2023-12-20T16:45:49;5.80;37.00
578;DHT22;275;48.492;9.214;2023-12-20T16:48:16;6.00;36.80
578;DHT22;275;48.492;9.214;2023-12-20T16:50:42;6.30;35.90